Track Вяткина Марина

Time Latitude Longitude Accuracy (66% radius in meters) Altitude (meters) Speed (km/hour) Bearing (degrees) Battery (%) GPS flag
10:23:18 60.370879 29.556030 32 76 0 70.904174804688 2 1 delete
10:23:01 60.370879 29.556030 16 76 0 70.904174804688 2 1 delete
10:22:53 60.370879 29.556030 16 75 0 70.904174804688 2 1 delete
10:22:40 60.370881 29.556012 32 72 0 70.904174804688 2 1 delete
10:22:35 60.370877 29.556004 48 71 0 70.904174804688 2 1 delete
11:22:30 60.371014 29.556966 16 72 0 67.109931945801 2 0 delete
11:22:17 60.371014 29.556966 16 72 0 67.109931945801 2 0 delete
11:22:05 60.371014 29.556966 16 72 0 67.109931945801 3 0 delete
11:21:51 60.371014 29.556966 16 72 0 67.109931945801 3 0 delete
11:21:38 60.371014 29.556966 16 72 0 67.109931945801 3 0 delete
11:21:26 60.371014 29.556966 16 72 0 67.109931945801 3 0 delete
11:21:12 60.371014 29.556966 16 72 0 67.109931945801 3 0 delete
11:21:00 60.371014 29.556966 16 72 0 67.109931945801 3 0 delete
11:20:47 60.371014 29.556966 16 72 0 67.109931945801 3 0 delete
11:20:34 60.371014 29.556966 16 72 0 67.109931945801 3 0 delete
11:20:22 60.371014 29.556966 16 72 0 67.109931945801 3 0 delete
11:20:09 60.371014 29.556966 16 72 0 67.109931945801 3 0 delete
11:19:57 60.371014 29.556966 16 72 0 67.109931945801 3 0 delete
11:19:43 60.371014 29.556966 16 72 0 67.109931945801 3 0 delete
11:19:30 60.371014 29.556966 16 72 0 67.109931945801 3 0 delete
11:19:17 60.371014 29.556966 16 72 0 67.109931945801 3 0 delete
11:19:04 60.371014 29.556966 16 72 0 67.109931945801 3 0 delete
11:18:52 60.371014 29.556966 16 72 0 67.109931945801 3 0 delete
11:18:39 60.371014 29.556966 16 72 0 67.109931945801 3 0 delete
11:18:26 60.371014 29.556966 16 72 0 67.109931945801 3 0 delete
11:18:13 60.371014 29.556966 16 72 0 67.109931945801 3 0 delete
11:18:00 60.371014 29.556966 16 72 0 67.109931945801 3 0 delete
11:17:47 60.371014 29.556966 16 72 0 67.109931945801 3 0 delete
11:17:34 60.371014 29.556966 16 72 0 67.109931945801 3 0 delete
11:17:21 60.371014 29.556966 16 72 0 67.109931945801 3 0 delete
11:17:09 60.371014 29.556966 16 72 0 67.109931945801 3 0 delete
11:16:56 60.371014 29.556966 16 72 0 67.109931945801 3 0 delete
11:16:43 60.371014 29.556966 16 72 0 67.109931945801 3 0 delete
11:16:30 60.371014 29.556966 16 72 0 67.109931945801 3 0 delete
11:16:17 60.371014 29.556966 16 72 0 67.109931945801 3 0 delete
11:16:03 60.371014 29.556966 16 72 0 67.109931945801 3 0 delete
11:15:51 60.371014 29.556966 16 72 0 67.109931945801 3 0 delete
11:15:37 60.371014 29.556966 16 72 0 67.109931945801 3 0 delete
11:15:24 60.371014 29.556966 16 72 0 67.109931945801 3 0 delete
11:15:12 60.371014 29.556966 16 72 0 67.109931945801 3 0 delete
11:14:58 60.371014 29.556966 16 72 0 67.109931945801 3 0 delete
11:14:44 60.371014 29.556966 16 72 0 67.109931945801 3 0 delete
11:14:32 60.371014 29.556966 16 72 0 67.109931945801 3 0 delete
11:14:19 60.371014 29.556966 16 72 0 67.109931945801 3 0 delete
11:14:06 60.371014 29.556966 16 72 0 67.109931945801 3 0 delete
11:13:53 60.371014 29.556966 16 72 0 67.109931945801 3 0 delete
11:13:40 60.371014 29.556966 16 72 0 67.109931945801 3 0 delete
11:13:27 60.371014 29.556966 16 72 0 67.109931945801 3 0 delete
10:13:07 60.371034 29.556988 16 79 0 70.904174804688 3 1 delete
10:13:00 60.371024 29.557030 16 77 0 72.390434265137 3 1 delete